sensor_id;sensor_type;location;lat;lon;timestamp;P1;durP1;ratioP1;P2;durP2;ratioP2
48621;SDS011;34421;48.944;9.460;2022-12-18T00:02:21;26.77;;;13.30;;
48621;SDS011;34421;48.944;9.460;2022-12-18T00:04:47;25.33;;;12.10;;
48621;SDS011;34421;48.944;9.460;2022-12-18T00:07:12;24.42;;;13.07;;
48621;SDS011;34421;48.944;9.460;2022-12-18T00:09:37;27.05;;;13.43;;
48621;SDS011;34421;48.944;9.460;2022-12-18T00:12:03;27.83;;;12.30;;
48621;SDS011;34421;48.944;9.460;2022-12-18T00:14:28;28.23;;;14.30;;
48621;SDS011;34421;48.944;9.460;2022-12-18T00:16:54;22.60;;;12.38;;
48621;SDS011;34421;48.944;9.460;2022-12-18T00:19:19;24.63;;;12.35;;
48621;SDS011;34421;48.944;9.460;2022-12-18T00:21:45;30.10;;;15.55;;
48621;SDS011;34421;48.944;9.460;2022-12-18T00:24:10;29.45;;;14.35;;
48621;SDS011;34421;48.944;9.460;2022-12-18T00:26:37;29.42;;;14.38;;
48621;SDS011;34421;48.944;9.460;2022-12-18T00:29:07;27.33;;;12.48;;
48621;SDS011;34421;48.944;9.460;2022-12-18T00:31:38;21.90;;;11.05;;
48621;SDS011;34421;48.944;9.460;2022-12-18T00:34:05;22.27;;;10.48;;
48621;SDS011;34421;48.944;9.460;2022-12-18T00:36:31;19.10;;;10.18;;
48621;SDS011;34421;48.944;9.460;2022-12-18T00:38:58;23.50;;;11.98;;
48621;SDS011;34421;48.944;9.460;2022-12-18T00:41:25;26.33;;;11.15;;
48621;SDS011;34421;48.944;9.460;2022-12-18T00:44:11;20.48;;;10.45;;
48621;SDS011;34421;48.944;9.460;2022-12-18T00:46:38;19.20;;;9.77;;
48621;SDS011;34421;48.944;9.460;2022-12-18T00:49:04;22.95;;;12.20;;
48621;SDS011;34421;48.944;9.460;2022-12-18T00:51:29;21.42;;;11.52;;
48621;SDS011;34421;48.944;9.460;2022-12-18T00:53:55;21.52;;;11.07;;
48621;SDS011;34421;48.944;9.460;2022-12-18T00:56:21;17.63;;;10.18;;
48621;SDS011;34421;48.944;9.460;2022-12-18T00:58:46;21.15;;;10.40;;
48621;SDS011;34421;48.944;9.460;2022-12-18T01:01:12;35.65;;;16.30;;
48621;SDS011;34421;48.944;9.460;2022-12-18T01:03:38;20.33;;;10.57;;
48621;SDS011;34421;48.944;9.460;2022-12-18T01:06:06;22.73;;;10.00;;
48621;SDS011;34421;48.944;9.460;2022-12-18T01:08:33;18.23;;;10.88;;
48621;SDS011;34421;48.944;9.460;2022-12-18T01:10:59;21.85;;;11.38;;
48621;SDS011;34421;48.944;9.460;2022-12-18T01:13:25;18.65;;;9.25;;
48621;SDS011;34421;48.944;9.460;2022-12-18T01:15:51;19.50;;;10.40;;
48621;SDS011;34421;48.944;9.460;2022-12-18T01:18:16;19.25;;;10.75;;
48621;SDS011;34421;48.944;9.460;2022-12-18T01:20:42;24.80;;;10.52;;
48621;SDS011;34421;48.944;9.460;2022-12-18T01:23:07;20.05;;;10.43;;
48621;SDS011;34421;48.944;9.460;2022-12-18T01:25:33;15.90;;;8.18;;
48621;SDS011;34421;48.944;9.460;2022-12-18T01:28:00;20.40;;;9.75;;
48621;SDS011;34421;48.944;9.460;2022-12-18T01:30:26;17.60;;;9.32;;
48621;SDS011;34421;48.944;9.460;2022-12-18T01:32:52;17.63;;;8.90;;
48621;SDS011;34421;48.944;9.460;2022-12-18T01:35:17;19.20;;;9.68;;
48621;SDS011;34421;48.944;9.460;2022-12-18T01:37:42;27.00;;;11.80;;
48621;SDS011;34421;48.944;9.460;2022-12-18T01:40:08;20.45;;;10.50;;
48621;SDS011;34421;48.944;9.460;2022-12-18T01:42:34;22.58;;;11.55;;
48621;SDS011;34421;48.944;9.460;2022-12-18T01:47:56;24.63;;;11.93;;
48621;SDS011;34421;48.944;9.460;2022-12-18T01:50:38;22.27;;;11.20;;
48621;SDS011;34421;48.944;9.460;2022-12-18T01:53:07;20.67;;;10.48;;
48621;SDS011;34421;48.944;9.460;2022-12-18T01:55:47;20.30;;;10.32;;
48621;SDS011;34421;48.944;9.460;2022-12-18T01:58:17;17.42;;;8.38;;
48621;SDS011;34421;48.944;9.460;2022-12-18T02:00:44;21.55;;;9.90;;
48621;SDS011;34421;48.944;9.460;2022-12-18T02:03:10;15.10;;;8.50;;
48621;SDS011;34421;48.944;9.460;2022-12-18T02:08:13;22.02;;;10.45;;
48621;SDS011;34421;48.944;9.460;2022-12-18T02:13:42;17.65;;;9.88;;
48621;SDS011;34421;48.944;9.460;2022-12-18T02:22:04;19.63;;;9.70;;
48621;SDS011;34421;48.944;9.460;2022-12-18T02:24:54;19.30;;;8.13;;
48621;SDS011;34421;48.944;9.460;2022-12-18T02:27:30;13.63;;;8.48;;
48621;SDS011;34421;48.944;9.460;2022-12-18T02:29:59;13.40;;;7.18;;
48621;SDS011;34421;48.944;9.460;2022-12-18T02:32:28;16.15;;;8.75;;
48621;SDS011;34421;48.944;9.460;2022-12-18T02:34:58;20.33;;;11.55;;
48621;SDS011;34421;48.944;9.460;2022-12-18T02:37:25;18.42;;;8.40;;
48621;SDS011;34421;48.944;9.460;2022-12-18T02:39:53;19.60;;;9.65;;
48621;SDS011;34421;48.944;9.460;2022-12-18T02:42:21;17.40;;;7.78;;
48621;SDS011;34421;48.944;9.460;2022-12-18T02:44:48;18.77;;;8.82;;
48621;SDS011;34421;48.944;9.460;2022-12-18T02:47:20;20.27;;;8.82;;
48621;SDS011;34421;48.944;9.460;2022-12-18T02:52:35;15.38;;;6.82;;
48621;SDS011;34421;48.944;9.460;2022-12-18T03:02:33;15.02;;;8.13;;
48621;SDS011;34421;48.944;9.460;2022-12-18T03:07:55;21.88;;;9.40;;
48621;SDS011;34421;48.944;9.460;2022-12-18T03:10:27;14.30;;;6.82;;
48621;SDS011;34421;48.944;9.460;2022-12-18T03:13:05;14.32;;;7.10;;
48621;SDS011;34421;48.944;9.460;2022-12-18T03:15:37;14.70;;;7.47;;
48621;SDS011;34421;48.944;9.460;2022-12-18T03:18:10;22.10;;;9.70;;
48621;SDS011;34421;48.944;9.460;2022-12-18T03:20:42;16.23;;;8.20;;
48621;SDS011;34421;48.944;9.460;2022-12-18T03:23:11;15.50;;;7.93;;
48621;SDS011;34421;48.944;9.460;2022-12-18T03:25:41;15.50;;;8.05;;
48621;SDS011;34421;48.944;9.460;2022-12-18T03:28:13;16.25;;;7.57;;
48621;SDS011;34421;48.944;9.460;2022-12-18T03:30:41;13.05;;;6.40;;
48621;SDS011;34421;48.944;9.460;2022-12-18T03:33:19;21.65;;;11.15;;
48621;SDS011;34421;48.944;9.460;2022-12-18T03:35:50;19.30;;;10.32;;
48621;SDS011;34421;48.944;9.460;2022-12-18T03:38:16;16.45;;;8.20;;
48621;SDS011;34421;48.944;9.460;2022-12-18T03:40:50;16.60;;;8.77;;
48621;SDS011;34421;48.944;9.460;2022-12-18T03:43:29;15.68;;;8.07;;
48621;SDS011;34421;48.944;9.460;2022-12-18T03:46:17;18.70;;;8.77;;
48621;SDS011;34421;48.944;9.460;2022-12-18T03:48:49;20.83;;;9.60;;
48621;SDS011;34421;48.944;9.460;2022-12-18T03:53:55;21.60;;;10.30;;
48621;SDS011;34421;48.944;9.460;2022-12-18T03:56:29;21.45;;;10.18;;
48621;SDS011;34421;48.944;9.460;2022-12-18T03:58:57;19.65;;;9.77;;
48621;SDS011;34421;48.944;9.460;2022-12-18T04:01:28;21.77;;;10.75;;
48621;SDS011;34421;48.944;9.460;2022-12-18T04:03:58;21.95;;;9.65;;
48621;SDS011;34421;48.944;9.460;2022-12-18T04:06:26;20.75;;;10.43;;
48621;SDS011;34421;48.944;9.460;2022-12-18T04:08:52;19.25;;;11.05;;
48621;SDS011;34421;48.944;9.460;2022-12-18T04:11:18;19.40;;;10.68;;
48621;SDS011;34421;48.944;9.460;2022-12-18T04:13:43;17.92;;;10.20;;
48621;SDS011;34421;48.944;9.460;2022-12-18T04:16:09;19.80;;;10.43;;
48621;SDS011;34421;48.944;9.460;2022-12-18T04:18:35;21.20;;;12.05;;
48621;SDS011;34421;48.944;9.460;2022-12-18T04:21:00;22.63;;;10.55;;
48621;SDS011;34421;48.944;9.460;2022-12-18T04:23:26;23.15;;;11.65;;
48621;SDS011;34421;48.944;9.460;2022-12-18T04:25:53;22.80;;;11.70;;
48621;SDS011;34421;48.944;9.460;2022-12-18T04:28:18;17.20;;;9.82;;
48621;SDS011;34421;48.944;9.460;2022-12-18T04:30:43;20.80;;;10.85;;
48621;SDS011;34421;48.944;9.460;2022-12-18T04:33:10;26.77;;;11.52;;
48621;SDS011;34421;48.944;9.460;2022-12-18T04:35:36;20.17;;;11.27;;
48621;SDS011;34421;48.944;9.460;2022-12-18T04:38:01;19.23;;;11.30;;
48621;SDS011;34421;48.944;9.460;2022-12-18T04:40:26;15.02;;;9.30;;
48621;SDS011;34421;48.944;9.460;2022-12-18T04:42:52;27.42;;;12.50;;
48621;SDS011;34421;48.944;9.460;2022-12-18T04:45:17;19.67;;;9.13;;
48621;SDS011;34421;48.944;9.460;2022-12-18T04:47:42;26.42;;;11.95;;
48621;SDS011;34421;48.944;9.460;2022-12-18T04:50:08;20.98;;;10.93;;
48621;SDS011;34421;48.944;9.460;2022-12-18T04:52:33;20.77;;;10.65;;
48621;SDS011;34421;48.944;9.460;2022-12-18T04:54:59;17.83;;;10.25;;
48621;SDS011;34421;48.944;9.460;2022-12-18T04:57:24;22.33;;;11.70;;
48621;SDS011;34421;48.944;9.460;2022-12-18T04:59:49;18.00;;;8.85;;
48621;SDS011;34421;48.944;9.460;2022-12-18T05:02:15;21.70;;;10.07;;
48621;SDS011;34421;48.944;9.460;2022-12-18T05:04:40;20.25;;;11.13;;
48621;SDS011;34421;48.944;9.460;2022-12-18T05:07:06;18.98;;;9.82;;
48621;SDS011;34421;48.944;9.460;2022-12-18T05:09:31;20.02;;;10.27;;
48621;SDS011;34421;48.944;9.460;2022-12-18T05:11:56;23.73;;;10.73;;
48621;SDS011;34421;48.944;9.460;2022-12-18T05:14:22;18.13;;;10.35;;
48621;SDS011;34421;48.944;9.460;2022-12-18T05:16:47;21.00;;;10.45;;
48621;SDS011;34421;48.944;9.460;2022-12-18T05:19:13;18.77;;;9.93;;
48621;SDS011;34421;48.944;9.460;2022-12-18T05:21:38;18.20;;;9.07;;
48621;SDS011;34421;48.944;9.460;2022-12-18T05:24:04;26.60;;;14.02;;
48621;SDS011;34421;48.944;9.460;2022-12-18T05:26:29;20.73;;;10.98;;
48621;SDS011;34421;48.944;9.460;2022-12-18T05:28:55;17.23;;;9.32;;
48621;SDS011;34421;48.944;9.460;2022-12-18T05:31:20;23.63;;;12.48;;
48621;SDS011;34421;48.944;9.460;2022-12-18T05:33:45;15.88;;;8.05;;
48621;SDS011;34421;48.944;9.460;2022-12-18T05:36:11;16.58;;;7.63;;
48621;SDS011;34421;48.944;9.460;2022-12-18T05:38:37;17.52;;;7.45;;
48621;SDS011;34421;48.944;9.460;2022-12-18T05:41:04;18.00;;;8.40;;
48621;SDS011;34421;48.944;9.460;2022-12-18T05:43:30;16.25;;;7.55;;
48621;SDS011;34421;48.944;9.460;2022-12-18T05:45:55;18.15;;;8.07;;
48621;SDS011;34421;48.944;9.460;2022-12-18T05:48:21;14.48;;;6.80;;
48621;SDS011;34421;48.944;9.460;2022-12-18T05:50:48;16.15;;;7.78;;
48621;SDS011;34421;48.944;9.460;2022-12-18T05:53:15;17.08;;;8.38;;
48621;SDS011;34421;48.944;9.460;2022-12-18T05:55:42;19.17;;;8.27;;
48621;SDS011;34421;48.944;9.460;2022-12-18T05:58:09;18.45;;;7.93;;
48621;SDS011;34421;48.944;9.460;2022-12-18T06:00:36;15.68;;;7.40;;
48621;SDS011;34421;48.944;9.460;2022-12-18T06:03:09;17.85;;;7.90;;
48621;SDS011;34421;48.944;9.460;2022-12-18T06:05:36;15.60;;;6.70;;
48621;SDS011;34421;48.944;9.460;2022-12-18T06:08:03;16.25;;;7.32;;
48621;SDS011;34421;48.944;9.460;2022-12-18T06:10:29;14.63;;;7.47;;
48621;SDS011;34421;48.944;9.460;2022-12-18T06:12:54;16.27;;;8.20;;
48621;SDS011;34421;48.944;9.460;2022-12-18T06:15:20;13.77;;;7.05;;
48621;SDS011;34421;48.944;9.460;2022-12-18T06:17:45;16.88;;;7.53;;
48621;SDS011;34421;48.944;9.460;2022-12-18T06:20:10;15.32;;;7.85;;
48621;SDS011;34421;48.944;9.460;2022-12-18T06:22:36;14.90;;;7.47;;
48621;SDS011;34421;48.944;9.460;2022-12-18T06:25:01;13.20;;;6.32;;
48621;SDS011;34421;48.944;9.460;2022-12-18T06:27:26;19.75;;;8.15;;
48621;SDS011;34421;48.944;9.460;2022-12-18T06:29:52;14.18;;;7.20;;
48621;SDS011;34421;48.944;9.460;2022-12-18T06:32:17;14.48;;;7.03;;
48621;SDS011;34421;48.944;9.460;2022-12-18T06:34:42;17.38;;;8.70;;
48621;SDS011;34421;48.944;9.460;2022-12-18T06:37:08;16.73;;;7.07;;
48621;SDS011;34421;48.944;9.460;2022-12-18T06:39:33;18.92;;;7.50;;
48621;SDS011;34421;48.944;9.460;2022-12-18T06:42:00;13.93;;;7.47;;
48621;SDS011;34421;48.944;9.460;2022-12-18T06:44:26;16.90;;;7.82;;
48621;SDS011;34421;48.944;9.460;2022-12-18T06:46:51;14.25;;;7.72;;
48621;SDS011;34421;48.944;9.460;2022-12-18T06:49:16;14.88;;;6.80;;
48621;SDS011;34421;48.944;9.460;2022-12-18T06:51:42;19.17;;;7.88;;
48621;SDS011;34421;48.944;9.460;2022-12-18T06:54:07;18.90;;;7.45;;
48621;SDS011;34421;48.944;9.460;2022-12-18T06:56:33;15.70;;;6.93;;
48621;SDS011;34421;48.944;9.460;2022-12-18T06:59:00;14.73;;;8.30;;
48621;SDS011;34421;48.944;9.460;2022-12-18T07:01:25;14.57;;;6.70;;
48621;SDS011;34421;48.944;9.460;2022-12-18T07:03:52;14.02;;;8.00;;
48621;SDS011;34421;48.944;9.460;2022-12-18T07:06:19;15.35;;;7.45;;
48621;SDS011;34421;48.944;9.460;2022-12-18T07:08:46;17.35;;;9.15;;
48621;SDS011;34421;48.944;9.460;2022-12-18T07:11:12;17.35;;;8.05;;
48621;SDS011;34421;48.944;9.460;2022-12-18T07:13:38;17.60;;;7.53;;
48621;SDS011;34421;48.944;9.460;2022-12-18T07:16:24;14.07;;;7.50;;
48621;SDS011;34421;48.944;9.460;2022-12-18T07:18:49;16.03;;;7.57;;
48621;SDS011;34421;48.944;9.460;2022-12-18T07:21:16;15.82;;;8.25;;
48621;SDS011;34421;48.944;9.460;2022-12-18T07:23:44;17.63;;;7.57;;
48621;SDS011;34421;48.944;9.460;2022-12-18T07:26:13;16.75;;;7.47;;
48621;SDS011;34421;48.944;9.460;2022-12-18T07:28:39;15.70;;;7.53;;
48621;SDS011;34421;48.944;9.460;2022-12-18T07:31:06;13.25;;;6.30;;
48621;SDS011;34421;48.944;9.460;2022-12-18T07:33:36;13.65;;;6.38;;
48621;SDS011;34421;48.944;9.460;2022-12-18T07:36:03;15.82;;;6.90;;
48621;SDS011;34421;48.944;9.460;2022-12-18T07:38:29;14.88;;;7.00;;
48621;SDS011;34421;48.944;9.460;2022-12-18T07:41:00;14.77;;;7.13;;
48621;SDS011;34421;48.944;9.460;2022-12-18T07:43:26;15.90;;;6.97;;
48621;SDS011;34421;48.944;9.460;2022-12-18T07:45:52;14.85;;;7.03;;
48621;SDS011;34421;48.944;9.460;2022-12-18T07:48:17;15.90;;;7.70;;
48621;SDS011;34421;48.944;9.460;2022-12-18T07:50:42;16.00;;;6.53;;
48621;SDS011;34421;48.944;9.460;2022-12-18T07:53:08;17.27;;;7.70;;
48621;SDS011;34421;48.944;9.460;2022-12-18T07:55:33;17.88;;;7.80;;
48621;SDS011;34421;48.944;9.460;2022-12-18T07:58:02;16.60;;;7.75;;
48621;SDS011;34421;48.944;9.460;2022-12-18T08:00:28;16.67;;;7.18;;
48621;SDS011;34421;48.944;9.460;2022-12-18T08:02:54;18.77;;;7.40;;
48621;SDS011;34421;48.944;9.460;2022-12-18T08:05:19;19.83;;;8.15;;
48621;SDS011;34421;48.944;9.460;2022-12-18T08:07:45;14.52;;;6.68;;
48621;SDS011;34421;48.944;9.460;2022-12-18T08:10:11;14.38;;;6.80;;
48621;SDS011;34421;48.944;9.460;2022-12-18T08:12:37;18.92;;;7.75;;
48621;SDS011;34421;48.944;9.460;2022-12-18T08:15:03;18.85;;;7.93;;
48621;SDS011;34421;48.944;9.460;2022-12-18T08:17:28;15.55;;;7.43;;
48621;SDS011;34421;48.944;9.460;2022-12-18T08:19:53;16.40;;;7.72;;
48621;SDS011;34421;48.944;9.460;2022-12-18T08:22:19;12.48;;;7.00;;
48621;SDS011;34421;48.944;9.460;2022-12-18T08:24:44;14.25;;;6.55;;
48621;SDS011;34421;48.944;9.460;2022-12-18T08:27:10;21.05;;;7.57;;
48621;SDS011;34421;48.944;9.460;2022-12-18T08:29:35;17.58;;;8.00;;
48621;SDS011;34421;48.944;9.460;2022-12-18T08:32:00;16.25;;;9.30;;
48621;SDS011;34421;48.944;9.460;2022-12-18T08:34:26;16.08;;;7.55;;
48621;SDS011;34421;48.944;9.460;2022-12-18T08:36:52;12.88;;;6.38;;
48621;SDS011;34421;48.944;9.460;2022-12-18T08:39:17;14.73;;;6.85;;
48621;SDS011;34421;48.944;9.460;2022-12-18T08:41:43;14.55;;;7.55;;
48621;SDS011;34421;48.944;9.460;2022-12-18T08:44:28;13.60;;;6.75;;
48621;SDS011;34421;48.944;9.460;2022-12-18T08:47:02;16.67;;;6.63;;
48621;SDS011;34421;48.944;9.460;2022-12-18T08:49:28;13.75;;;7.43;;
48621;SDS011;34421;48.944;9.460;2022-12-18T08:51:54;14.15;;;7.40;;
48621;SDS011;34421;48.944;9.460;2022-12-18T08:54:20;16.30;;;8.18;;
48621;SDS011;34421;48.944;9.460;2022-12-18T08:56:45;14.68;;;8.20;;
48621;SDS011;34421;48.944;9.460;2022-12-18T08:59:11;17.65;;;8.55;;
48621;SDS011;34421;48.944;9.460;2022-12-18T09:01:36;14.20;;;7.03;;
48621;SDS011;34421;48.944;9.460;2022-12-18T09:04:01;16.65;;;7.32;;
48621;SDS011;34421;48.944;9.460;2022-12-18T09:06:27;15.65;;;7.15;;
48621;SDS011;34421;48.944;9.460;2022-12-18T09:08:52;15.82;;;8.32;;
48621;SDS011;34421;48.944;9.460;2022-12-18T09:11:25;14.88;;;7.57;;
48621;SDS011;34421;48.944;9.460;2022-12-18T09:13:52;15.70;;;6.88;;
48621;SDS011;34421;48.944;9.460;2022-12-18T09:16:19;15.20;;;6.88;;
48621;SDS011;34421;48.944;9.460;2022-12-18T09:18:45;13.73;;;7.30;;
48621;SDS011;34421;48.944;9.460;2022-12-18T09:21:11;17.30;;;8.02;;
48621;SDS011;34421;48.944;9.460;2022-12-18T09:23:39;12.82;;;6.65;;
48621;SDS011;34421;48.944;9.460;2022-12-18T09:26:04;11.32;;;6.43;;
48621;SDS011;34421;48.944;9.460;2022-12-18T09:28:30;16.10;;;8.48;;
48621;SDS011;34421;48.944;9.460;2022-12-18T09:30:55;17.88;;;7.88;;
48621;SDS011;34421;48.944;9.460;2022-12-18T09:33:20;14.80;;;7.32;;
48621;SDS011;34421;48.944;9.460;2022-12-18T09:35:46;14.48;;;8.07;;
48621;SDS011;34421;48.944;9.460;2022-12-18T09:38:15;15.52;;;8.60;;
48621;SDS011;34421;48.944;9.460;2022-12-18T09:40:44;13.55;;;6.93;;
48621;SDS011;34421;48.944;9.460;2022-12-18T09:43:17;12.93;;;8.05;;
48621;SDS011;34421;48.944;9.460;2022-12-18T09:46:05;13.35;;;8.05;;
48621;SDS011;34421;48.944;9.460;2022-12-18T09:48:39;15.55;;;8.77;;
48621;SDS011;34421;48.944;9.460;2022-12-18T09:51:19;12.85;;;7.70;;
48621;SDS011;34421;48.944;9.460;2022-12-18T09:53:52;14.10;;;8.52;;
48621;SDS011;34421;48.944;9.460;2022-12-18T09:56:21;14.45;;;8.30;;
48621;SDS011;34421;48.944;9.460;2022-12-18T10:01:27;13.40;;;8.57;;
48621;SDS011;34421;48.944;9.460;2022-12-18T10:03:54;15.55;;;8.48;;
48621;SDS011;34421;48.944;9.460;2022-12-18T10:08:53;13.98;;;7.75;;
48621;SDS011;34421;48.944;9.460;2022-12-18T10:19:50;14.43;;;7.10;;
48621;SDS011;34421;48.944;9.460;2022-12-18T10:27:35;22.00;;;10.88;;
48621;SDS011;34421;48.944;9.460;2022-12-18T10:30:00;15.23;;;8.18;;
48621;SDS011;34421;48.944;9.460;2022-12-18T10:32:29;11.63;;;7.68;;
48621;SDS011;34421;48.944;9.460;2022-12-18T10:34:56;11.65;;;6.72;;
48621;SDS011;34421;48.944;9.460;2022-12-18T10:37:26;14.23;;;7.15;;
48621;SDS011;34421;48.944;9.460;2022-12-18T10:40:13;12.82;;;7.10;;
48621;SDS011;34421;48.944;9.460;2022-12-18T10:42:40;11.90;;;6.20;;
48621;SDS011;34421;48.944;9.460;2022-12-18T10:45:15;13.02;;;7.22;;
48621;SDS011;34421;48.944;9.460;2022-12-18T10:47:43;11.73;;;6.55;;
48621;SDS011;34421;48.944;9.460;2022-12-18T10:50:28;11.23;;;6.47;;
48621;SDS011;34421;48.944;9.460;2022-12-18T10:53:00;14.43;;;8.18;;
48621;SDS011;34421;48.944;9.460;2022-12-18T10:55:31;18.55;;;12.10;;
48621;SDS011;34421;48.944;9.460;2022-12-18T11:01:04;10.63;;;5.80;;
48621;SDS011;34421;48.944;9.460;2022-12-18T11:03:34;12.27;;;7.15;;
48621;SDS011;34421;48.944;9.460;2022-12-18T11:06:04;12.95;;;6.65;;
48621;SDS011;34421;48.944;9.460;2022-12-18T11:08:37;12.23;;;6.63;;
48621;SDS011;34421;48.944;9.460;2022-12-18T11:11:03;11.60;;;6.93;;
48621;SDS011;34421;48.944;9.460;2022-12-18T11:13:32;12.38;;;6.03;;
48621;SDS011;34421;48.944;9.460;2022-12-18T11:15:58;11.52;;;6.10;;
48621;SDS011;34421;48.944;9.460;2022-12-18T11:21:08;9.80;;;5.82;;
48621;SDS011;34421;48.944;9.460;2022-12-18T11:23:46;10.40;;;6.28;;
48621;SDS011;34421;48.944;9.460;2022-12-18T11:26:17;14.13;;;7.90;;
48621;SDS011;34421;48.944;9.460;2022-12-18T11:28:47;13.98;;;7.28;;
48621;SDS011;34421;48.944;9.460;2022-12-18T11:31:32;12.77;;;6.82;;
48621;SDS011;34421;48.944;9.460;2022-12-18T11:34:20;15.63;;;7.78;;
48621;SDS011;34421;48.944;9.460;2022-12-18T11:37:07;14.07;;;7.07;;
48621;SDS011;34421;48.944;9.460;2022-12-18T11:39:40;13.27;;;7.40;;
48621;SDS011;34421;48.944;9.460;2022-12-18T11:47:44;13.70;;;7.78;;
48621;SDS011;34421;48.944;9.460;2022-12-18T11:50:33;12.25;;;8.00;;
48621;SDS011;34421;48.944;9.460;2022-12-18T11:53:12;16.17;;;8.85;;
48621;SDS011;34421;48.944;9.460;2022-12-18T11:58:24;14.43;;;8.20;;
48621;SDS011;34421;48.944;9.460;2022-12-18T12:28:12;15.35;;;7.63;;
48621;SDS011;34421;48.944;9.460;2022-12-18T12:33:35;12.63;;;6.72;;
48621;SDS011;34421;48.944;9.460;2022-12-18T12:39:06;15.70;;;6.85;;
48621;SDS011;34421;48.944;9.460;2022-12-18T12:41:36;13.05;;;6.88;;
48621;SDS011;34421;48.944;9.460;2022-12-18T12:44:24;14.20;;;7.30;;
48621;SDS011;34421;48.944;9.460;2022-12-18T12:46:55;12.40;;;5.80;;
48621;SDS011;34421;48.944;9.460;2022-12-18T12:49:25;15.52;;;7.47;;
48621;SDS011;34421;48.944;9.460;2022-12-18T12:51:59;16.35;;;7.40;;
48621;SDS011;34421;48.944;9.460;2022-12-18T12:54:30;14.63;;;7.43;;
48621;SDS011;34421;48.944;9.460;2022-12-18T13:02:27;12.38;;;6.57;;
48621;SDS011;34421;48.944;9.460;2022-12-18T13:05:59;13.10;;;6.47;;
48621;SDS011;34421;48.944;9.460;2022-12-18T13:08:09;15.40;;;7.55;;
48621;SDS011;34421;48.944;9.460;2022-12-18T13:10:37;13.73;;;7.47;;
48621;SDS011;34421;48.944;9.460;2022-12-18T13:13:05;12.45;;;6.50;;
48621;SDS011;34421;48.944;9.460;2022-12-18T13:15:38;12.77;;;6.15;;
48621;SDS011;34421;48.944;9.460;2022-12-18T13:23:31;13.90;;;6.00;;
48621;SDS011;34421;48.944;9.460;2022-12-18T13:31:10;13.10;;;6.10;;
48621;SDS011;34421;48.944;9.460;2022-12-18T13:33:43;14.55;;;6.55;;
48621;SDS011;34421;48.944;9.460;2022-12-18T13:38:47;14.75;;;7.72;;
48621;SDS011;34421;48.944;9.460;2022-12-18T13:41:26;14.43;;;6.93;;
48621;SDS011;34421;48.944;9.460;2022-12-18T13:43:54;12.60;;;6.28;;
48621;SDS011;34421;48.944;9.460;2022-12-18T13:48:58;13.50;;;7.28;;
48621;SDS011;34421;48.944;9.460;2022-12-18T13:51:24;11.43;;;5.35;;
48621;SDS011;34421;48.944;9.460;2022-12-18T13:53:53;12.60;;;6.97;;
48621;SDS011;34421;48.944;9.460;2022-12-18T13:56:24;15.23;;;7.15;;
48621;SDS011;34421;48.944;9.460;2022-12-18T14:06:53;13.77;;;6.97;;
48621;SDS011;34421;48.944;9.460;2022-12-18T14:09:27;16.58;;;8.25;;
48621;SDS011;34421;48.944;9.460;2022-12-18T14:11:55;12.05;;;6.80;;
48621;SDS011;34421;48.944;9.460;2022-12-18T14:14:41;14.60;;;7.20;;
48621;SDS011;34421;48.944;9.460;2022-12-18T14:17:11;13.68;;;7.40;;
48621;SDS011;34421;48.944;9.460;2022-12-18T14:19:40;14.57;;;6.88;;
48621;SDS011;34421;48.944;9.460;2022-12-18T14:22:11;14.63;;;6.75;;
48621;SDS011;34421;48.944;9.460;2022-12-18T14:24:41;13.50;;;6.30;;
48621;SDS011;34421;48.944;9.460;2022-12-18T14:27:41;16.98;;;8.45;;
48621;SDS011;34421;48.944;9.460;2022-12-18T14:30:15;25.48;;;11.82;;
48621;SDS011;34421;48.944;9.460;2022-12-18T14:33:08;23.48;;;11.35;;
48621;SDS011;34421;48.944;9.460;2022-12-18T14:35:36;14.80;;;6.63;;
48621;SDS011;34421;48.944;9.460;2022-12-18T14:40:41;12.85;;;7.25;;
48621;SDS011;34421;48.944;9.460;2022-12-18T14:43:10;12.68;;;6.95;;
48621;SDS011;34421;48.944;9.460;2022-12-18T14:45:37;12.40;;;6.22;;
48621;SDS011;34421;48.944;9.460;2022-12-18T14:48:07;12.50;;;5.75;;
48621;SDS011;34421;48.944;9.460;2022-12-18T14:50:34;10.98;;;5.53;;
48621;SDS011;34421;48.944;9.460;2022-12-18T14:52:59;19.70;;;8.95;;
48621;SDS011;34421;48.944;9.460;2022-12-18T14:55:25;11.93;;;5.80;;
48621;SDS011;34421;48.944;9.460;2022-12-18T14:57:52;15.05;;;7.20;;
48621;SDS011;34421;48.944;9.460;2022-12-18T15:00:21;11.65;;;6.40;;
48621;SDS011;34421;48.944;9.460;2022-12-18T15:02:52;13.07;;;5.65;;
48621;SDS011;34421;48.944;9.460;2022-12-18T15:05:20;14.23;;;6.35;;
48621;SDS011;34421;48.944;9.460;2022-12-18T15:07:52;12.50;;;6.53;;
48621;SDS011;34421;48.944;9.460;2022-12-18T15:18:00;13.93;;;5.90;;
48621;SDS011;34421;48.944;9.460;2022-12-18T15:20:27;10.98;;;5.82;;
48621;SDS011;34421;48.944;9.460;2022-12-18T15:22:56;13.55;;;6.85;;
48621;SDS011;34421;48.944;9.460;2022-12-18T15:25:35;12.18;;;6.47;;
48621;SDS011;34421;48.944;9.460;2022-12-18T15:28:02;14.10;;;6.70;;
48621;SDS011;34421;48.944;9.460;2022-12-18T15:30:29;13.02;;;5.05;;
48621;SDS011;34421;48.944;9.460;2022-12-18T15:35:59;14.68;;;6.43;;
48621;SDS011;34421;48.944;9.460;2022-12-18T15:38:25;10.82;;;5.82;;
48621;SDS011;34421;48.944;9.460;2022-12-18T15:40:52;11.18;;;6.15;;
48621;SDS011;34421;48.944;9.460;2022-12-18T15:43:19;12.23;;;5.60;;
48621;SDS011;34421;48.944;9.460;2022-12-18T15:46:18;14.52;;;6.30;;
48621;SDS011;34421;48.944;9.460;2022-12-18T15:48:46;13.82;;;7.25;;
48621;SDS011;34421;48.944;9.460;2022-12-18T15:51:14;13.38;;;5.75;;
48621;SDS011;34421;48.944;9.460;2022-12-18T15:53:43;13.70;;;6.18;;
48621;SDS011;34421;48.944;9.460;2022-12-18T15:56:13;12.32;;;5.93;;
48621;SDS011;34421;48.944;9.460;2022-12-18T15:58:59;13.20;;;6.75;;
48621;SDS011;34421;48.944;9.460;2022-12-18T16:01:26;11.18;;;5.55;;
48621;SDS011;34421;48.944;9.460;2022-12-18T16:03:53;10.80;;;5.40;;
48621;SDS011;34421;48.944;9.460;2022-12-18T16:06:19;11.88;;;6.00;;
48621;SDS011;34421;48.944;9.460;2022-12-18T16:08:45;12.10;;;5.55;;
48621;SDS011;34421;48.944;9.460;2022-12-18T16:11:29;12.20;;;4.97;;
48621;SDS011;34421;48.944;9.460;2022-12-18T16:14:10;12.35;;;6.10;;
48621;SDS011;34421;48.944;9.460;2022-12-18T16:16:41;11.05;;;4.68;;
48621;SDS011;34421;48.944;9.460;2022-12-18T16:19:07;11.90;;;6.15;;
48621;SDS011;34421;48.944;9.460;2022-12-18T16:21:32;13.05;;;6.05;;
48621;SDS011;34421;48.944;9.460;2022-12-18T16:23:58;15.30;;;5.90;;
48621;SDS011;34421;48.944;9.460;2022-12-18T16:26:23;11.57;;;4.68;;
48621;SDS011;34421;48.944;9.460;2022-12-18T16:28:49;14.43;;;5.55;;
48621;SDS011;34421;48.944;9.460;2022-12-18T16:31:14;12.75;;;5.53;;
48621;SDS011;34421;48.944;9.460;2022-12-18T16:33:39;12.77;;;6.07;;
48621;SDS011;34421;48.944;9.460;2022-12-18T16:36:05;14.35;;;7.63;;
48621;SDS011;34421;48.944;9.460;2022-12-18T16:38:30;15.13;;;6.50;;
48621;SDS011;34421;48.944;9.460;2022-12-18T16:40:56;13.82;;;6.60;;
48621;SDS011;34421;48.944;9.460;2022-12-18T16:43:40;15.07;;;6.60;;
48621;SDS011;34421;48.944;9.460;2022-12-18T16:46:05;11.00;;;5.90;;
48621;SDS011;34421;48.944;9.460;2022-12-18T16:48:30;11.88;;;5.63;;
48621;SDS011;34421;48.944;9.460;2022-12-18T16:50:59;15.50;;;6.20;;
48621;SDS011;34421;48.944;9.460;2022-12-18T16:53:31;12.65;;;5.95;;
48621;SDS011;34421;48.944;9.460;2022-12-18T16:55:57;17.75;;;7.10;;
48621;SDS011;34421;48.944;9.460;2022-12-18T16:58:23;13.80;;;7.10;;
48621;SDS011;34421;48.944;9.460;2022-12-18T17:00:48;19.50;;;8.38;;